sensor_id;sensor_type;location;lat;lon;timestamp;pressure;altitude;pressure_sealevel;temperature;humidity
63343;BME280;49465;57.664;39.686;2022-11-20T00:02:13;101083.38;;;-4.59;52.65
63343;BME280;49465;57.664;39.686;2022-11-20T00:04:46;101089.28;;;-4.63;52.96
63343;BME280;49465;57.664;39.686;2022-11-20T00:07:18;101081.56;;;-4.67;53.23
63343;BME280;49465;57.664;39.686;2022-11-20T00:09:56;101088.25;;;-4.79;53.04
63343;BME280;49465;57.664;39.686;2022-11-20T00:12:34;101088.25;;;-4.79;53.23
63343;BME280;49465;57.664;39.686;2022-11-20T00:15:11;101084.97;;;-4.68;53.30
63343;BME280;49465;57.664;39.686;2022-11-20T00:17:47;101080.56;;;-4.82;53.11
63343;BME280;49465;57.664;39.686;2022-11-20T00:20:30;101095.19;;;-4.70;53.18
63343;BME280;49465;57.664;39.686;2022-11-20T00:23:19;101088.50;;;-4.55;53.55
63343;BME280;49465;57.664;39.686;2022-11-20T00:25:54;101084.06;;;-4.72;53.97
63343;BME280;49465;57.664;39.686;2022-11-20T00:28:31;101091.78;;;-4.70;53.58
63343;BME280;49465;57.664;39.686;2022-11-20T00:31:14;101092.84;;;-4.48;53.26
63343;BME280;49465;57.664;39.686;2022-11-20T00:33:50;101082.38;;;-4.71;53.75
63343;BME280;49465;57.664;39.686;2022-11-20T00:36:31;101090.09;;;-4.68;53.68
63343;BME280;49465;57.664;39.686;2022-11-20T00:39:09;101085.75;;;-4.74;53.65
63343;BME280;49465;57.664;39.686;2022-11-20T00:41:44;101086.59;;;-4.75;53.88
63343;BME280;49465;57.664;39.686;2022-11-20T00:44:24;101073.78;;;-4.77;53.82
63343;BME280;49465;57.664;39.686;2022-11-20T00:46:55;101077.09;;;-4.87;53.41
63343;BME280;49465;57.664;39.686;2022-11-20T00:49:30;101068.56;;;-4.86;53.68
63343;BME280;49465;57.664;39.686;2022-11-20T00:52:05;101073.88;;;-4.67;53.95
63343;BME280;49465;57.664;39.686;2022-11-20T00:54:44;101072.19;;;-4.68;54.10
63343;BME280;49465;57.664;39.686;2022-11-20T00:57:25;101069.56;;;-4.71;53.98
63343;BME280;49465;57.664;39.686;2022-11-20T00:59:54;101066.91;;;-4.84;53.98
63343;BME280;49465;57.664;39.686;2022-11-20T01:02:32;101069.63;;;-4.65;54.31
63343;BME280;49465;57.664;39.686;2022-11-20T01:05:01;101072.88;;;-4.82;54.13
63343;BME280;49465;57.664;39.686;2022-11-20T01:07:35;101073.03;;;-4.68;54.53
63343;BME280;49465;57.664;39.686;2022-11-20T01:10:15;101057.34;;;-4.11;51.98
63343;BME280;49465;57.664;39.686;2022-11-20T01:12:53;101053.34;;;-4.73;53.78
63343;BME280;49465;57.664;39.686;2022-11-20T01:15:45;101060.78;;;-4.06;51.78
63343;BME280;49465;57.664;39.686;2022-11-20T01:18:39;101054.03;;;-3.95;51.50
63343;BME280;49465;57.664;39.686;2022-11-20T01:21:14;101053.47;;;-4.61;53.28
63343;BME280;49465;57.664;39.686;2022-11-20T01:23:53;101051.81;;;-4.56;53.62
63343;BME280;49465;57.664;39.686;2022-11-20T01:26:45;101045.13;;;-4.42;53.08
63343;BME280;49465;57.664;39.686;2022-11-20T01:29:33;101045.94;;;-4.46;53.62
63343;BME280;49465;57.664;39.686;2022-11-20T01:32:08;101051.75;;;-4.64;54.01
63343;BME280;49465;57.664;39.686;2022-11-20T01:34:43;101049.16;;;-4.65;53.76
63343;BME280;49465;57.664;39.686;2022-11-20T01:37:17;101051.66;;;-4.71;53.78
63343;BME280;49465;57.664;39.686;2022-11-20T01:39:50;101047.25;;;-4.85;53.98
63343;BME280;49465;57.664;39.686;2022-11-20T01:42:33;101054.22;;;-4.71;54.07
63343;BME280;49465;57.664;39.686;2022-11-20T01:48:10;101045.38;;;-4.11;51.74
63343;BME280;49465;57.664;39.686;2022-11-20T01:50:51;101050.06;;;-4.62;53.16
63343;BME280;49465;57.664;39.686;2022-11-20T01:53:33;101053.50;;;-4.60;53.69
63343;BME280;49465;57.664;39.686;2022-11-20T01:56:13;101049.13;;;-4.70;53.51
63343;BME280;49465;57.664;39.686;2022-11-20T01:58:58;101047.09;;;-4.08;51.86
63343;BME280;49465;57.664;39.686;2022-11-20T02:01:39;101044.06;;;-4.61;53.65
63343;BME280;49465;57.664;39.686;2022-11-20T02:04:17;101044.56;;;-4.07;52.11
63343;BME280;49465;57.664;39.686;2022-11-20T02:07:11;101047.69;;;-4.42;53.38
63343;BME280;49465;57.664;39.686;2022-11-20T02:09:50;101049.13;;;-4.67;53.76
63343;BME280;49465;57.664;39.686;2022-11-20T02:12:25;101053.34;;;-4.73;53.45
63343;BME280;49465;57.664;39.686;2022-11-20T02:15:13;101047.34;;;-4.75;53.77
63343;BME280;49465;57.664;39.686;2022-11-20T02:17:44;101052.44;;;-4.77;53.86
63343;BME280;49465;57.664;39.686;2022-11-20T02:20:29;101050.91;;;-4.64;53.70
63343;BME280;49465;57.664;39.686;2022-11-20T02:23:08;101049.91;;;-4.75;53.80
63343;BME280;49465;57.664;39.686;2022-11-20T02:25:49;101044.03;;;-4.68;54.01
63343;BME280;49465;57.664;39.686;2022-11-20T02:28:31;101042.19;;;-4.79;54.49
63343;BME280;49465;57.664;39.686;2022-11-20T02:31:12;101040.44;;;-4.83;53.95
63343;BME280;49465;57.664;39.686;2022-11-20T02:33:47;101044.59;;;-4.94;53.99
63343;BME280;49465;57.664;39.686;2022-11-20T02:36:27;101036.38;;;-4.65;53.83
63343;BME280;49465;57.664;39.686;2022-11-20T02:39:09;101032.78;;;-4.81;53.79
63343;BME280;49465;57.664;39.686;2022-11-20T02:41:57;101031.22;;;-4.67;53.73
63343;BME280;49465;57.664;39.686;2022-11-20T02:44:33;101042.72;;;-4.23;52.17
63343;BME280;49465;57.664;39.686;2022-11-20T02:47:17;101038.09;;;-4.64;53.40
63343;BME280;49465;57.664;39.686;2022-11-20T02:50:00;101032.00;;;-4.75;54.23
63343;BME280;49465;57.664;39.686;2022-11-20T02:52:32;101035.09;;;-4.19;51.85
63343;BME280;49465;57.664;39.686;2022-11-20T02:55:10;101028.59;;;-4.74;53.90
63343;BME280;49465;57.664;39.686;2022-11-20T02:57:51;101022.59;;;-4.80;54.12
63343;BME280;49465;57.664;39.686;2022-11-20T03:00:36;101018.28;;;-4.84;54.16
63343;BME280;49465;57.664;39.686;2022-11-20T03:03:18;101020.06;;;-4.78;54.15
63343;BME280;49465;57.664;39.686;2022-11-20T03:05:59;101008.84;;;-4.86;54.08
63343;BME280;49465;57.664;39.686;2022-11-20T03:08:34;101014.00;;;-4.83;54.11
63343;BME280;49465;57.664;39.686;2022-11-20T03:11:10;101006.00;;;-4.27;52.82
63343;BME280;49465;57.664;39.686;2022-11-20T03:13:43;100999.28;;;-4.11;52.43
63343;BME280;49465;57.664;39.686;2022-11-20T03:16:30;100999.56;;;-4.77;54.21
63343;BME280;49465;57.664;39.686;2022-11-20T03:19:07;100993.53;;;-4.83;54.13
63343;BME280;49465;57.664;39.686;2022-11-20T03:21:53;101004.69;;;-4.80;54.37
63343;BME280;49465;57.664;39.686;2022-11-20T03:24:28;101001.25;;;-4.79;54.40
63343;BME280;49465;57.664;39.686;2022-11-20T03:27:11;101002.59;;;-4.23;52.21
63343;BME280;49465;57.664;39.686;2022-11-20T03:29:51;100997.81;;;-4.81;54.54
63343;BME280;49465;57.664;39.686;2022-11-20T03:32:29;100990.13;;;-4.82;54.45
63343;BME280;49465;57.664;39.686;2022-11-20T03:35:11;100986.69;;;-4.84;54.75
63343;BME280;49465;57.664;39.686;2022-11-20T03:37:43;100980.72;;;-4.86;54.81
63343;BME280;49465;57.664;39.686;2022-11-20T03:40:19;100985.53;;;-4.25;52.94
63343;BME280;49465;57.664;39.686;2022-11-20T03:42:48;100989.22;;;-4.89;54.39
63343;BME280;49465;57.664;39.686;2022-11-20T03:45:23;100984.06;;;-4.93;54.38
63343;BME280;49465;57.664;39.686;2022-11-20T03:48:03;100990.69;;;-4.19;52.76
63343;BME280;49465;57.664;39.686;2022-11-20T03:50:46;100992.03;;;-4.61;54.41
63343;BME280;49465;57.664;39.686;2022-11-20T03:53:29;100989.00;;;-4.14;52.14
63343;BME280;49465;57.664;39.686;2022-11-20T03:56:07;100992.88;;;-4.64;54.60
63343;BME280;49465;57.664;39.686;2022-11-20T03:58:48;100987.69;;;-4.71;54.98
63343;BME280;49465;57.664;39.686;2022-11-20T04:01:22;100984.25;;;-4.73;54.80
63343;BME280;49465;57.664;39.686;2022-11-20T04:04:09;100993.28;;;-4.14;52.79
63343;BME280;49465;57.664;39.686;2022-11-20T04:06:44;100994.19;;;-4.09;52.26
63343;BME280;49465;57.664;39.686;2022-11-20T04:09:18;100982.47;;;-4.84;54.23
63343;BME280;49465;57.664;39.686;2022-11-20T04:11:50;100985.03;;;-4.81;54.63
63343;BME280;49465;57.664;39.686;2022-11-20T04:14:31;100985.81;;;-4.89;54.61
63343;BME280;49465;57.664;39.686;2022-11-20T04:17:11;100986.81;;;-4.73;54.51
63343;BME280;49465;57.664;39.686;2022-11-20T04:19:45;100989.31;;;-4.80;54.84
63343;BME280;49465;57.664;39.686;2022-11-20T04:22:17;100989.88;;;-4.12;52.81
63343;BME280;49465;57.664;39.686;2022-11-20T04:24:58;100987.69;;;-4.71;54.21
63343;BME280;49465;57.664;39.686;2022-11-20T04:27:33;100981.56;;;-4.87;54.64
63343;BME280;49465;57.664;39.686;2022-11-20T04:30:03;100981.50;;;-4.93;54.78
63343;BME280;49465;57.664;39.686;2022-11-20T04:32:41;100979.91;;;-4.84;54.94
63343;BME280;49465;57.664;39.686;2022-11-20T04:35:21;100979.13;;;-4.73;54.40
63343;BME280;49465;57.664;39.686;2022-11-20T04:38:02;100986.91;;;-4.63;54.50
63343;BME280;49465;57.664;39.686;2022-11-20T04:40:42;100978.22;;;-4.82;55.10
63343;BME280;49465;57.664;39.686;2022-11-20T04:43:27;100981.34;;;-4.12;52.98
63343;BME280;49465;57.664;39.686;2022-11-20T04:46:01;100984.84;;;-4.00;52.28
63343;BME280;49465;57.664;39.686;2022-11-20T04:48:38;100983.97;;;-4.03;52.15
63343;BME280;49465;57.664;39.686;2022-11-20T04:51:13;100983.50;;;-4.63;54.34
63343;BME280;49465;57.664;39.686;2022-11-20T04:53:57;100987.78;;;-4.59;54.48
63343;BME280;49465;57.664;39.686;2022-11-20T04:56:34;100983.84;;;-4.19;52.64
63343;BME280;49465;57.664;39.686;2022-11-20T04:59:11;100981.38;;;-4.05;52.46
63343;BME280;49465;57.664;39.686;2022-11-20T05:01:58;100975.75;;;-4.69;53.87
63343;BME280;49465;57.664;39.686;2022-11-20T05:04:35;100979.19;;;-4.70;53.84
63343;BME280;49465;57.664;39.686;2022-11-20T05:07:15;100976.53;;;-4.80;54.17
63343;BME280;49465;57.664;39.686;2022-11-20T05:09:50;100984.09;;;-4.90;54.42
63343;BME280;49465;57.664;39.686;2022-11-20T05:12:25;100990.19;;;-4.78;54.72
63343;BME280;49465;57.664;39.686;2022-11-20T05:15:02;100982.56;;;-4.71;54.54
63343;BME280;49465;57.664;39.686;2022-11-20T05:17:53;100986.06;;;-4.62;54.88
63343;BME280;49465;57.664;39.686;2022-11-20T05:20:30;100990.72;;;-4.10;52.42
63343;BME280;49465;57.664;39.686;2022-11-20T05:23:10;100993.41;;;-3.98;52.30
63343;BME280;49465;57.664;39.686;2022-11-20T05:25:42;100987.75;;;-4.65;53.99
63343;BME280;49465;57.664;39.686;2022-11-20T05:28:22;100984.28;;;-4.69;54.58
63343;BME280;49465;57.664;39.686;2022-11-20T05:31:07;100990.19;;;-4.78;54.55
63343;BME280;49465;57.664;39.686;2022-11-20T05:34:00;100986.16;;;-4.51;54.79
63343;BME280;49465;57.664;39.686;2022-11-20T05:36:35;100980.78;;;-4.79;54.66
63343;BME280;49465;57.664;39.686;2022-11-20T05:39:28;100986.44;;;-4.14;52.88
63343;BME280;49465;57.664;39.686;2022-11-20T05:42:13;100981.88;;;-4.53;54.59
63343;BME280;49465;57.664;39.686;2022-11-20T05:45:10;100981.38;;;-4.06;52.86
63343;BME280;49465;57.664;39.686;2022-11-20T05:47:48;100995.09;;;-3.97;52.65
63343;BME280;49465;57.664;39.686;2022-11-20T05:50:26;100983.56;;;-4.55;54.23
63343;BME280;49465;57.664;39.686;2022-11-20T05:53:06;100989.47;;;-4.61;54.68
63343;BME280;49465;57.664;39.686;2022-11-20T05:55:46;100990.25;;;-4.71;54.91
63343;BME280;49465;57.664;39.686;2022-11-20T05:58:38;101001.44;;;-4.60;55.06
63343;BME280;49465;57.664;39.686;2022-11-20T06:01:24;101002.25;;;-4.63;54.81
63343;BME280;49465;57.664;39.686;2022-11-20T06:04:15;101004.44;;;-4.06;52.92
63343;BME280;49465;57.664;39.686;2022-11-20T06:07:00;101018.59;;;-4.50;54.62
63343;BME280;49465;57.664;39.686;2022-11-20T06:09:46;101023.69;;;-4.54;55.22
63343;BME280;49465;57.664;39.686;2022-11-20T06:12:23;101013.00;;;-4.03;52.94
63343;BME280;49465;57.664;39.686;2022-11-20T06:15:09;101019.50;;;-4.46;54.84
63343;BME280;49465;57.664;39.686;2022-11-20T06:17:52;101020.13;;;-4.70;54.91
63343;BME280;49465;57.664;39.686;2022-11-20T06:20:22;101020.00;;;-4.81;55.08
63343;BME280;49465;57.664;39.686;2022-11-20T06:23:11;101027.94;;;-4.53;55.25
63343;BME280;49465;57.664;39.686;2022-11-20T06:25:44;101024.28;;;-4.79;55.09
63343;BME280;49465;57.664;39.686;2022-11-20T06:28:30;101025.22;;;-4.69;55.68
63343;BME280;49465;57.664;39.686;2022-11-20T06:31:09;101028.72;;;-4.61;55.58
63343;BME280;49465;57.664;39.686;2022-11-20T06:33:54;101033.66;;;-4.79;55.34
63343;BME280;49465;57.664;39.686;2022-11-20T06:36:25;101037.13;;;-4.72;55.64
63343;BME280;49465;57.664;39.686;2022-11-20T06:38:58;101041.47;;;-4.65;55.68
63343;BME280;49465;57.664;39.686;2022-11-20T06:41:29;101039.78;;;-4.65;55.76
63343;BME280;49465;57.664;39.686;2022-11-20T06:43:58;101044.03;;;-4.65;56.25
63343;BME280;49465;57.664;39.686;2022-11-20T06:46:27;101037.13;;;-4.72;56.09
63343;BME280;49465;57.664;39.686;2022-11-20T06:49:03;101030.16;;;-3.94;53.53
63343;BME280;49465;57.664;39.686;2022-11-20T06:51:34;101029.59;;;-4.60;55.93
63343;BME280;49465;57.664;39.686;2022-11-20T06:54:01;101035.50;;;-4.66;56.20
63343;BME280;49465;57.664;39.686;2022-11-20T06:56:30;101032.97;;;-4.64;55.93
63343;BME280;49465;57.664;39.686;2022-11-20T06:59:04;101031.38;;;-4.51;56.32
63343;BME280;49465;57.664;39.686;2022-11-20T07:01:37;101035.66;;;-4.50;56.21
63343;BME280;49465;57.664;39.686;2022-11-20T07:04:06;101035.34;;;-3.82;54.08
63343;BME280;49465;57.664;39.686;2022-11-20T07:06:35;101040.03;;;-4.39;55.46
63343;BME280;49465;57.664;39.686;2022-11-20T07:09:04;101034.88;;;-4.45;56.01
63343;BME280;49465;57.664;39.686;2022-11-20T07:11:39;101042.22;;;-3.76;54.05
63343;BME280;49465;57.664;39.686;2022-11-20T07:14:16;101048.25;;;-3.65;53.33
63343;BME280;49465;57.664;39.686;2022-11-20T07:16:48;101037.47;;;-4.39;54.85
63343;BME280;49465;57.664;39.686;2022-11-20T07:19:16;101045.69;;;-3.66;53.29
63343;BME280;49465;57.664;39.686;2022-11-20T07:21:46;101042.63;;;-4.37;55.36
63343;BME280;49465;57.664;39.686;2022-11-20T07:24:15;101042.56;;;-4.40;55.52
63343;BME280;49465;57.664;39.686;2022-11-20T07:26:46;101051.69;;;-3.61;53.83
63343;BME280;49465;57.664;39.686;2022-11-20T07:29:15;101049.50;;;-4.28;55.14
63343;BME280;49465;57.664;39.686;2022-11-20T07:31:42;101046.03;;;-4.37;55.52
63343;BME280;49465;57.664;39.686;2022-11-20T07:34:12;101052.97;;;-4.25;56.09
63343;BME280;49465;57.664;39.686;2022-11-20T07:36:41;101046.91;;;-4.33;55.58
63343;BME280;49465;57.664;39.686;2022-11-20T07:39:10;101046.06;;;-4.30;55.63
63343;BME280;49465;57.664;39.686;2022-11-20T07:41:36;101043.53;;;-4.27;55.64
63343;BME280;49465;57.664;39.686;2022-11-20T07:44:08;101035.97;;;-4.15;55.79
63343;BME280;49465;57.664;39.686;2022-11-20T07:46:39;101038.94;;;-3.47;53.95
63343;BME280;49465;57.664;39.686;2022-11-20T07:49:11;101042.91;;;-3.99;55.18
63343;BME280;49465;57.664;39.686;2022-11-20T07:51:52;101043.28;;;-3.40;53.67
63343;BME280;49465;57.664;39.686;2022-11-20T07:54:32;101051.50;;;-3.93;55.11
63343;BME280;49465;57.664;39.686;2022-11-20T07:57:06;101050.56;;;-4.00;54.97
63343;BME280;49465;57.664;39.686;2022-11-20T07:59:33;101049.66;;;-4.10;55.25
63343;BME280;49465;57.664;39.686;2022-11-20T08:02:09;101056.53;;;-4.07;55.31
63343;BME280;49465;57.664;39.686;2022-11-20T08:04:38;101057.44;;;-3.96;55.19
63343;BME280;49465;57.664;39.686;2022-11-20T08:07:11;101056.59;;;-3.95;54.93
63343;BME280;49465;57.664;39.686;2022-11-20T08:09:48;101064.31;;;-3.92;55.13
63343;BME280;49465;57.664;39.686;2022-11-20T08:12:26;101071.25;;;-3.75;55.09
63343;BME280;49465;57.664;39.686;2022-11-20T08:15:17;101066.91;;;-3.87;55.18
63343;BME280;49465;57.664;39.686;2022-11-20T08:17:58;101076.34;;;-3.83;55.12
63343;BME280;49465;57.664;39.686;2022-11-20T08:20:32;101071.63;;;-3.15;53.15
63343;BME280;49465;57.664;39.686;2022-11-20T08:23:17;101073.88;;;-3.68;54.32
63343;BME280;49465;57.664;39.686;2022-11-20T08:25:54;101071.63;;;-3.08;53.47
63343;BME280;49465;57.664;39.686;2022-11-20T08:28:28;101068.78;;;-3.66;54.07
63343;BME280;49465;57.664;39.686;2022-11-20T08:31:14;101070.78;;;-3.02;52.75
63343;BME280;49465;57.664;39.686;2022-11-20T08:33:55;101071.34;;;-3.63;54.59
63343;BME280;49465;57.664;39.686;2022-11-20T08:36:38;101071.38;;;-3.59;54.81
63343;BME280;49465;57.664;39.686;2022-11-20T08:39:18;101070.56;;;-3.50;54.02
63343;BME280;49465;57.664;39.686;2022-11-20T08:44:40;101079.94;;;-3.56;54.17
63343;BME280;49465;57.664;39.686;2022-11-20T08:47:15;101070.53;;;-3.61;54.22
63343;BME280;49465;57.664;39.686;2022-11-20T08:49:58;101056.31;;;-2.94;53.04
63343;BME280;49465;57.664;39.686;2022-11-20T08:52:46;101059.50;;;-3.43;54.40
63343;BME280;49465;57.664;39.686;2022-11-20T08:55:26;101057.75;;;-3.45;54.45
63343;BME280;49465;57.664;39.686;2022-11-20T08:58:14;101058.63;;;-3.43;54.15
63343;BME280;49465;57.664;39.686;2022-11-20T09:00:55;101055.44;;;-2.87;53.00
63343;BME280;49465;57.664;39.686;2022-11-20T09:03:36;101050.06;;;-3.45;53.97
63343;BME280;49465;57.664;39.686;2022-11-20T09:06:23;101038.19;;;-3.31;54.06
63343;BME280;49465;57.664;39.686;2022-11-20T09:09:01;101035.59;;;-3.35;54.31
63343;BME280;49465;57.664;39.686;2022-11-20T09:11:39;101041.78;;;-2.83;53.31
63343;BME280;49465;57.664;39.686;2022-11-20T09:14:29;101041.63;;;-3.27;53.74
63343;BME280;49465;57.664;39.686;2022-11-20T09:17:02;101042.34;;;-3.51;53.86
63343;BME280;49465;57.664;39.686;2022-11-20T09:19:44;101047.53;;;-3.42;54.42
63343;BME280;49465;57.664;39.686;2022-11-20T09:22:19;101045.72;;;-3.57;54.12
63343;BME280;49465;57.664;39.686;2022-11-20T09:24:54;101050.06;;;-3.45;54.16
63343;BME280;49465;57.664;39.686;2022-11-20T09:27:29;101043.47;;;-2.79;53.31
63343;BME280;49465;57.664;39.686;2022-11-20T09:30:07;101049.53;;;-2.63;52.49
63343;BME280;49465;57.664;39.686;2022-11-20T09:32:47;101054.47;;;-3.24;53.97
63343;BME280;49465;57.664;39.686;2022-11-20T09:35:28;101048.66;;;-2.63;52.98
63343;BME280;49465;57.664;39.686;2022-11-20T09:38:08;101031.34;;;-3.35;53.69
63343;BME280;49465;57.664;39.686;2022-11-20T09:41:02;101030.59;;;-3.09;53.64
63343;BME280;49465;57.664;39.686;2022-11-20T09:52:49;101046.09;;;-2.62;52.25
63343;BME280;49465;57.664;39.686;2022-11-20T09:55:29;101034.81;;;-3.19;53.64
63343;BME280;49465;57.664;39.686;2022-11-20T09:58:06;101041.63;;;-3.27;53.78
63343;BME280;49465;57.664;39.686;2022-11-20T10:00:44;101039.09;;;-3.21;53.79
63343;BME280;49465;57.664;39.686;2022-11-20T10:03:45;101036.59;;;-2.96;53.81
63343;BME280;49465;57.664;39.686;2022-11-20T10:06:32;101045.94;;;-3.14;53.22
63343;BME280;49465;57.664;39.686;2022-11-20T10:18:20;101044.22;;;-3.16;53.55
63343;BME280;49465;57.664;39.686;2022-11-20T10:23:56;101046.00;;;-2.97;53.35
63343;BME280;49465;57.664;39.686;2022-11-20T10:30:10;101034.00;;;-3.03;52.95
63343;BME280;49465;57.664;39.686;2022-11-20T10:32:44;101041.00;;;-2.59;52.64
63343;BME280;49465;57.664;39.686;2022-11-20T10:35:44;101039.19;;;-2.92;53.19
63343;BME280;49465;57.664;39.686;2022-11-20T10:41:59;101053.66;;;-3.15;52.84
63343;BME280;49465;57.664;39.686;2022-11-20T10:44:34;101067.50;;;-2.58;51.87
63343;BME280;49465;57.664;39.686;2022-11-20T10:47:28;101059.59;;;-3.20;53.08
63343;BME280;49465;57.664;39.686;2022-11-20T10:50:08;101091.25;;;-3.18;52.86
63343;BME280;49465;57.664;39.686;2022-11-20T10:53:01;101110.06;;;-3.14;53.23
63343;BME280;49465;57.664;39.686;2022-11-20T10:55:40;101107.50;;;-3.19;53.30
63343;BME280;49465;57.664;39.686;2022-11-20T10:58:32;101101.72;;;-2.59;52.03
63343;BME280;49465;57.664;39.686;2022-11-20T11:01:16;101105.19;;;-2.48;51.98
63343;BME280;49465;57.664;39.686;2022-11-20T11:03:47;101121.22;;;-3.15;53.18
63343;BME280;49465;57.664;39.686;2022-11-20T11:06:33;101116.31;;;-2.53;52.21
63343;BME280;49465;57.664;39.686;2022-11-20T11:09:13;101117.00;;;-3.04;52.76
63343;BME280;49465;57.664;39.686;2022-11-20T11:11:48;101120.59;;;-2.52;52.40
63343;BME280;49465;57.664;39.686;2022-11-20T11:14:31;101118.69;;;-3.07;53.61
63343;BME280;49465;57.664;39.686;2022-11-20T11:20:16;101131.59;;;-2.89;53.03
63343;BME280;49465;57.664;39.686;2022-11-20T11:22:52;101128.28;;;-2.49;52.07
63343;BME280;49465;57.664;39.686;2022-11-20T11:25:56;101135.91;;;-2.80;52.38
63343;BME280;49465;57.664;39.686;2022-11-20T11:28:32;101135.75;;;-3.08;53.47
63343;BME280;49465;57.664;39.686;2022-11-20T11:31:02;101121.94;;;-3.34;53.35
63343;BME280;49465;57.664;39.686;2022-11-20T11:33:34;101116.81;;;-3.36;53.95
63343;BME280;49465;57.664;39.686;2022-11-20T11:36:16;101123.66;;;-3.33;53.58
63343;BME280;49465;57.664;39.686;2022-11-20T11:38:44;101123.66;;;-3.35;54.12
63343;BME280;49465;57.664;39.686;2022-11-20T11:41:30;101122.91;;;-3.17;53.80
63343;BME280;49465;57.664;39.686;2022-11-20T11:44:33;101117.00;;;-2.94;53.71
63343;BME280;49465;57.664;39.686;2022-11-20T11:47:32;101125.53;;;-3.09;53.78
63343;BME280;49465;57.664;39.686;2022-11-20T11:50:18;101123.81;;;-3.04;53.17
63343;BME280;49465;57.664;39.686;2022-11-20T11:56:04;101123.03;;;-2.86;52.88
63343;BME280;49465;57.664;39.686;2022-11-20T11:58:52;101111.84;;;-3.01;53.33
63343;BME280;49465;57.664;39.686;2022-11-20T12:01:44;101111.88;;;-2.97;53.96
63343;BME280;49465;57.664;39.686;2022-11-20T12:04:46;101119.59;;;-2.93;54.18
63343;BME280;49465;57.664;39.686;2022-11-20T12:10:04;101113.72;;;-2.55;52.46
63343;BME280;49465;57.664;39.686;2022-11-20T12:12:47;101121.25;;;-3.06;54.22
63343;BME280;49465;57.664;39.686;2022-11-20T12:15:33;101121.28;;;-3.00;54.65
63343;BME280;49465;57.664;39.686;2022-11-20T12:18:22;101113.56;;;-3.07;54.74
63343;BME280;49465;57.664;39.686;2022-11-20T12:47:35;101119.44;;;-3.25;54.35
63343;BME280;49465;57.664;39.686;2022-11-20T12:55:47;101117.84;;;-3.00;55.30
63343;BME280;49465;57.664;39.686;2022-11-20T12:58:46;101126.41;;;-2.98;54.77
63343;BME280;49465;57.664;39.686;2022-11-20T13:01:45;101123.81;;;-3.07;54.88
63343;BME280;49465;57.664;39.686;2022-11-20T13:07:06;101117.16;;;-2.56;53.36
63343;BME280;49465;57.664;39.686;2022-11-20T13:09:38;101115.47;;;-2.45;52.89
63343;BME280;49465;57.664;39.686;2022-11-20T13:12:20;101109.50;;;-2.39;52.83
63343;BME280;49465;57.664;39.686;2022-11-20T13:15:22;101102.50;;;-2.86;53.81
63343;BME280;49465;57.664;39.686;2022-11-20T13:18:19;101098.22;;;-2.92;54.48
63343;BME280;49465;57.664;39.686;2022-11-20T13:20:56;101107.50;;;-3.20;55.42
63343;BME280;49465;57.664;39.686;2022-11-20T13:23:31;101115.19;;;-3.20;55.69
63343;BME280;49465;57.664;39.686;2022-11-20T13:26:15;101117.69;;;-3.37;54.79
63343;BME280;49465;57.664;39.686;2022-11-20T13:29:29;101111.03;;;-3.00;54.98
63343;BME280;49465;57.664;39.686;2022-11-20T13:32:17;101127.28;;;-2.99;54.25
63343;BME280;49465;57.664;39.686;2022-11-20T13:34:57;101131.47;;;-3.16;54.96
63343;BME280;49465;57.664;39.686;2022-11-20T13:37:38;101135.75;;;-3.11;55.09
63343;BME280;49465;57.664;39.686;2022-11-20T13:40:27;101135.72;;;-3.19;54.92
63343;BME280;49465;57.664;39.686;2022-11-20T13:46:10;101127.13;;;-3.28;55.55
63343;BME280;49465;57.664;39.686;2022-11-20T13:48:43;101123.66;;;-3.35;55.52
63343;BME280;49465;57.664;39.686;2022-11-20T13:51:43;101127.25;;;-3.05;55.25
63343;BME280;49465;57.664;39.686;2022-11-20T14:00:11;101128.94;;;-3.04;54.78
63343;BME280;49465;57.664;39.686;2022-11-20T14:02:40;101128.72;;;-3.41;55.00
63343;BME280;49465;57.664;39.686;2022-11-20T14:05:31;101133.19;;;-3.08;54.82
63343;BME280;49465;57.664;39.686;2022-11-20T14:08:17;101141.72;;;-3.16;55.62
63343;BME280;49465;57.664;39.686;2022-11-20T14:11:01;101141.63;;;-3.35;55.50
63343;BME280;49465;57.664;39.686;2022-11-20T14:13:36;101138.19;;;-3.35;55.71
63343;BME280;49465;57.664;39.686;2022-11-20T14:16:22;101142.59;;;-3.14;54.97
63343;BME280;49465;57.664;39.686;2022-11-20T14:18:57;101146.72;;;-3.36;55.59
63343;BME280;49465;57.664;39.686;2022-11-20T14:21:52;101152.72;;;-3.36;55.86
63343;BME280;49465;57.664;39.686;2022-11-20T14:24:37;101149.34;;;-3.29;55.79
63343;BME280;49465;57.664;39.686;2022-11-20T14:27:22;101151.13;;;-3.19;56.02
63343;BME280;49465;57.664;39.686;2022-11-20T14:30:02;101147.94;;;-2.68;53.87
63343;BME280;49465;57.664;39.686;2022-11-20T14:32:41;101150.19;;;-3.30;56.22
63343;BME280;49465;57.664;39.686;2022-11-20T14:35:35;101153.72;;;-3.08;55.87
63343;BME280;49465;57.664;39.686;2022-11-20T14:38:14;101156.19;;;-3.31;55.69
63343;BME280;49465;57.664;39.686;2022-11-20T14:40:51;101156.91;;;-3.46;55.58
63343;BME280;49465;57.664;39.686;2022-11-20T14:43:38;101161.31;;;-3.31;56.27
63343;BME280;49465;57.664;39.686;2022-11-20T14:46:16;101157.28;;;-2.83;54.56
63343;BME280;49465;57.664;39.686;2022-11-20T14:48:52;101159.91;;;-2.72;53.98
63343;BME280;49465;57.664;39.686;2022-11-20T14:51:38;101157.09;;;-3.18;55.20
63343;BME280;49465;57.664;39.686;2022-11-20T14:54:34;101158.78;;;-3.20;55.93
63343;BME280;49465;57.664;39.686;2022-11-20T14:57:32;101154.72;;;-2.80;54.14
63343;BME280;49465;57.664;39.686;2022-11-20T15:00:19;101173.31;;;-3.27;55.80
63343;BME280;49465;57.664;39.686;2022-11-20T15:02:57;101152.69;;;-3.41;56.07
63343;BME280;49465;57.664;39.686;2022-11-20T15:06:04;101151.13;;;-3.17;55.63
63343;BME280;49465;57.664;39.686;2022-11-20T15:08:59;101149.59;;;-2.81;53.65
63343;BME280;49465;57.664;39.686;2022-11-20T15:11:38;101147.56;;;-3.38;55.65
63343;BME280;49465;57.664;39.686;2022-11-20T15:14:15;101156.00;;;-3.59;55.57